Time;durP1;ratioP1;P1;durP2;ratioP2;P2;SDS_P1;SDS_P2;PMS_P1;PMS_P2;Temp;Humidity;BMP_temperature;BMP_pressure;BME280_temperature;BME280_humidity;BME280_pressure;Samples;Min_cycle;Max_cycle;Signal;HPM_P1;HPM_P2
2021/11/09 00:01:52;;;;;;;6.15;4.70;;;;;;;-140.79;100.00;63287.88;5065201;28;20039;-70
2021/11/09 00:04:19;;;;;;;5.53;4.30;;;;;;;-140.79;100.00;63287.88;5047080;28;20044;-69
2021/11/09 00:06:54;;;;;;;6.63;5.07;;;;;;;-140.79;100.00;63287.88;5064746;28;20036;-70
2021/11/09 00:09:19;;;;;;;5.25;4.25;;;;;;;-140.79;100.00;63287.88;5048039;28;20032;-70
2021/11/09 00:11:45;;;;;;;5.90;4.22;;;;;;;-140.79;100.00;63287.88;5064755;28;20025;-70
2021/11/09 00:14:10;;;;;;;6.40;4.47;;;;;;;-140.79;100.00;63287.88;5064816;28;20031;-69
2021/11/09 00:16:36;;;;;;;6.72;5.30;;;;;;;-140.79;100.00;63287.88;5064747;28;20024;-69
2021/11/09 00:19:01;;;;;;;7.15;4.97;;;;;;;-140.79;100.00;63287.88;5046885;28;20383;-70
2021/11/09 00:21:27;;;;;;;6.10;4.72;;;;;;;-140.79;100.00;63287.88;5065116;28;20048;-70
2021/11/09 00:23:52;;;;;;;5.32;4.28;;;;;;;-140.79;100.00;63287.88;5064695;28;20032;-69
2021/11/09 00:26:18;;;;;;;6.70;4.82;;;;;;;-140.79;100.00;63287.88;5064579;28;20036;-70
2021/11/09 00:28:44;;;;;;;7.35;4.53;;;;;;;-140.79;100.00;63287.88;5046623;28;20024;-70
2021/11/09 00:31:09;;;;;;;5.72;4.65;;;;;;;-140.79;100.00;63287.88;5046778;28;20559;-70
2021/11/09 00:33:35;;;;;;;6.82;4.75;;;;;;;-140.79;100.00;63287.88;5046998;28;20021;-70
2021/11/09 00:36:00;;;;;;;6.97;4.80;;;;;;;-140.79;100.00;63287.88;5065131;28;20024;-70
2021/11/09 00:38:26;;;;;;;6.68;4.72;;;;;;;-140.79;100.00;63287.88;5049629;28;20419;-69
2021/11/09 00:40:51;;;;;;;5.82;4.20;;;;;;;-140.79;100.00;63287.88;5065882;28;20663;-70
2021/11/09 00:43:18;;;;;;;5.15;4.43;;;;;;;-140.79;100.00;63287.88;5046560;28;20016;-70
2021/11/09 00:45:43;;;;;;;7.57;4.88;;;;;;;-140.79;100.00;63287.88;5064891;28;20028;-67
2021/11/09 00:48:09;;;;;;;5.40;4.30;;;;;;;-140.79;100.00;63287.88;5063739;28;20036;-68
2021/11/09 00:50:35;;;;;;;5.97;4.40;;;;;;;-140.79;100.00;63287.88;5063803;28;20059;-69
2021/11/09 00:53:00;;;;;;;6.15;4.30;;;;;;;-140.79;100.00;63287.88;5063529;28;20030;-68
2021/11/09 00:55:26;;;;;;;5.95;4.40;;;;;;;-140.79;100.00;63287.88;5063339;28;20094;-68
2021/11/09 00:57:52;;;;;;;6.13;4.72;;;;;;;-140.79;100.00;63287.88;5064269;28;20124;-68
2021/11/09 01:02:56;;;;;;;6.00;4.20;;;;;;;-140.79;100.00;63287.88;5263325;22;20053;-74
2021/11/09 01:05:23;;;;;;;5.43;4.53;;;;;;;-140.79;100.00;63287.88;5024161;28;20095;-73
2021/11/09 01:07:50;;;;;;;6.60;4.65;;;;;;;-140.79;100.00;63287.88;5024801;28;20491;-75
2021/11/09 01:10:17;;;;;;;6.60;4.50;;;;;;;-140.79;100.00;63287.88;5024603;28;20029;-74
2021/11/09 01:12:43;;;;;;;5.82;4.40;;;;;;;-140.79;100.00;63287.88;5024823;28;20033;-74
2021/11/09 01:15:08;;;;;;;7.15;4.40;;;;;;;-140.79;100.00;63287.88;5024579;28;20131;-75
2021/11/09 01:17:34;;;;;;;6.10;4.25;;;;;;;-140.79;100.00;63287.88;5028819;28;20412;-74
2021/11/09 01:19:59;;;;;;;5.50;4.22;;;;;;;-140.79;100.00;63287.88;5028362;28;20051;-74
2021/11/09 01:22:25;;;;;;;6.13;4.40;;;;;;;-140.79;100.00;63287.88;5028641;28;20029;-74
2021/11/09 01:24:50;;;;;;;6.38;4.57;;;;;;;-140.79;100.00;63287.88;5028085;28;20030;-74
2021/11/09 01:27:16;;;;;;;6.28;4.72;;;;;;;-140.79;100.00;63287.88;5028950;28;20088;-75
2021/11/09 01:29:42;;;;;;;5.20;4.45;;;;;;;-140.79;100.00;63287.88;5029160;28;20040;-74
2021/11/09 01:32:07;;;;;;;7.50;4.93;;;;;;;-140.79;100.00;63287.88;5010971;28;20040;-74
2021/11/09 01:34:33;;;;;;;5.85;4.25;;;;;;;-140.79;100.00;63287.88;5027984;28;20025;-74
2021/11/09 01:36:58;;;;;;;6.43;4.40;;;;;;;-140.79;100.00;63287.88;5028212;28;20083;-75
2021/11/09 01:39:24;;;;;;;5.75;4.25;;;;;;;-140.79;100.00;63287.88;5027863;28;20611;-75
2021/11/09 01:41:49;;;;;;;6.60;4.80;;;;;;;-140.79;100.00;63287.88;5010527;28;20033;-74
2021/11/09 01:44:15;;;;;;;7.38;4.65;;;;;;;-140.79;100.00;63287.88;5027680;28;20025;-75
2021/11/09 01:46:40;;;;;;;5.78;4.32;;;;;;;-140.79;100.00;63287.88;5010040;28;20487;-75
2021/11/09 01:49:06;;;;;;;6.47;4.25;;;;;;;-140.79;100.00;63287.88;5027733;28;20475;-75
2021/11/09 01:51:32;;;;;;;5.85;4.15;;;;;;;-140.79;100.00;63287.88;5009944;28;20124;-74
2021/11/09 01:53:58;;;;;;;5.00;4.00;;;;;;;-140.79;100.00;63287.88;5028051;28;20026;-74
2021/11/09 01:56:27;;;;;;;6.75;4.45;;;;;;;-140.79;100.00;63287.88;5028053;28;20033;-75
2021/11/09 01:58:53;;;;;;;6.07;4.10;;;;;;;-140.79;100.00;63287.88;5028124;28;20033;-74
2021/11/09 02:01:19;;;;;;;6.03;4.40;;;;;;;-140.79;100.00;63287.88;5028033;28;20069;-74
2021/11/09 02:03:47;;;;;;;6.47;4.57;;;;;;;-140.79;100.00;63287.88;5022768;28;20042;-74
2021/11/09 02:06:13;;;;;;;5.35;4.18;;;;;;;-140.79;100.00;63287.88;5007755;28;20044;-75
2021/11/09 02:08:39;;;;;;;4.50;3.97;;;;;;;-140.79;100.00;63287.88;5007899;28;20034;-74
2021/11/09 02:11:04;;;;;;;5.57;4.10;;;;;;;-140.79;100.00;63287.88;5007825;28;20061;-74
2021/11/09 02:13:30;;;;;;;6.05;4.45;;;;;;;-140.79;100.00;63287.88;5007823;28;20065;-74
2021/11/09 02:15:57;;;;;;;5.03;4.13;;;;;;;-140.79;100.00;63287.88;5007831;28;20084;-75
2021/11/09 02:18:23;;;;;;;5.25;4.13;;;;;;;-140.79;100.00;63287.88;5008125;28;20042;-74
2021/11/09 02:21:11;;;;;;;5.38;4.13;;;;;;;-140.79;100.00;63287.88;5007391;28;20123;-72
2021/11/09 02:23:37;;;;;;;6.28;4.28;;;;;;;-140.79;100.00;63287.88;5006405;28;20032;-74
2021/11/09 02:26:04;;;;;;;6.53;4.03;;;;;;;-140.79;100.00;63287.88;5007186;28;20496;-74
2021/11/09 02:28:29;;;;;;;5.28;4.18;;;;;;;-140.79;100.00;63287.88;5005871;28;20030;-74
2021/11/09 02:30:55;;;;;;;6.38;4.30;;;;;;;-140.79;100.00;63287.88;5007161;28;20122;-75
2021/11/09 02:33:20;;;;;;;5.65;4.05;;;;;;;-140.79;100.00;63287.88;5007264;28;20440;-75
2021/11/09 02:35:46;;;;;;;5.22;4.07;;;;;;;-140.79;100.00;63287.88;5006144;28;20026;-75
2021/11/09 02:38:12;;;;;;;5.28;4.40;;;;;;;-140.79;100.00;63287.88;5007146;28;20444;-74
2021/11/09 02:40:38;;;;;;;5.35;3.92;;;;;;;-140.79;100.00;63287.88;5005895;28;20077;-73
2021/11/09 02:43:09;;;;;;;5.95;4.20;;;;;;;-140.79;100.00;63287.88;5007085;28;20048;-74
2021/11/09 02:45:54;;;;;;;5.25;4.13;;;;;;;-140.79;100.00;63287.88;5006825;28;20026;-75
2021/11/09 02:48:23;;;;;;;5.18;4.35;;;;;;;-140.79;100.00;63287.88;5007281;28;20032;-74
2021/11/09 02:51:13;;;;;;;5.88;4.38;;;;;;;-140.79;100.00;63287.88;5006838;28;20018;-74
2021/11/09 03:06:30;;;;;;;5.88;4.45;;;;;;;-140.79;100.00;63287.88;5026994;28;20030;-73
2021/11/09 03:09:38;;;;;;;5.22;4.00;;;;;;;-140.79;100.00;63287.88;5027886;28;20134;-74
2021/11/09 03:11:55;;;;;;;6.38;4.38;;;;;;;-140.79;100.00;63287.88;5023629;28;20503;-74
2021/11/09 03:14:22;;;;;;;6.00;4.20;;;;;;;-140.79;100.00;63287.88;5027317;28;20112;-73
2021/11/09 03:16:48;;;;;;;5.50;3.90;;;;;;;-140.79;100.00;63287.88;5009380;28;20025;-74
2021/11/09 03:19:30;;;;;;;5.53;4.10;;;;;;;-140.79;100.00;63287.88;5027104;28;20041;-74
2021/11/09 03:46:39;;;;;;;4.88;4.00;;;;;;;-140.79;100.00;63287.88;5025983;28;20112;-74
2021/11/09 03:49:06;;;;;;;5.50;4.35;;;;;;;-140.79;100.00;63287.88;4991699;28;20483;-75
2021/11/09 03:51:32;;;;;;;5.18;3.75;;;;;;;-140.79;100.00;63287.88;5007902;28;20033;-74
2021/11/09 03:54:00;;;;;;;4.53;3.65;;;;;;;-140.79;100.00;63287.88;5025432;28;20044;-73
2021/11/09 03:56:33;;;;;;;4.70;3.53;;;;;;;-140.79;100.00;63287.88;5025406;28;20033;-74
2021/11/09 03:59:02;;;;;;;5.20;3.88;;;;;;;-140.79;100.00;63287.88;5025459;28;20037;-74
2021/11/09 04:01:35;;;;;;;4.95;3.95;;;;;;;-140.79;100.00;63287.88;5025245;28;20025;-74
2021/11/09 04:04:19;;;;;;;4.95;4.00;;;;;;;-140.79;100.00;63287.88;5025110;28;20045;-74
2021/11/09 04:06:48;;;;;;;6.22;4.20;;;;;;;-140.79;100.00;63287.88;5025382;28;20021;-74
2021/11/09 04:09:21;;;;;;;5.05;3.85;;;;;;;-140.79;100.00;63287.88;5025466;28;20041;-74
2021/11/09 04:12:51;;;;;;;5.40;3.95;;;;;;;-140.79;100.00;63287.88;5025311;28;20033;-74
2021/11/09 04:15:04;;;;;;;5.43;3.90;;;;;;;-140.79;100.00;63287.88;5015754;28;20400;-74
2021/11/09 04:20:03;;;;;;;4.80;3.60;;;;;;;-140.79;100.00;63287.88;5024939;28;20037;-73
2021/11/09 04:23:23;;;;;;;4.88;3.70;;;;;;;-140.79;100.00;63287.88;5025031;28;20060;-73
2021/11/09 04:28:03;;;;;;;5.07;3.63;;;;;;;-140.79;100.00;63287.88;5025129;28;20028;-71
2021/11/09 04:33:21;;;;;;;4.57;3.80;;;;;;;-140.79;100.00;63287.88;5026036;28;20120;-71
2021/11/09 05:09:08;;;;;;;4.40;3.72;;;;;;;-140.79;100.00;63287.88;5028947;28;20985;-71
2021/11/09 05:11:34;;;;;;;4.57;3.63;;;;;;;-140.79;100.00;63287.88;5027646;28;20040;-71
2021/11/09 05:13:59;;;;;;;5.38;3.70;;;;;;;-140.79;100.00;63287.88;5010470;28;20082;-71
2021/11/09 05:16:25;;;;;;;4.53;3.20;;;;;;;-140.79;100.00;63287.88;5028702;28;20503;-71
2021/11/09 05:18:50;;;;;;;5.97;3.33;;;;;;;-140.79;100.00;63287.88;5010838;28;20553;-71
2021/11/09 05:21:16;;;;;;;4.40;3.17;;;;;;;-140.79;100.00;63287.88;5028504;28;20060;-71
2021/11/09 05:23:42;;;;;;;4.13;3.42;;;;;;;-140.79;100.00;63287.88;5010044;28;20087;-71
2021/11/09 05:26:07;;;;;;;5.07;3.50;;;;;;;-140.79;100.00;63287.88;5028671;28;20049;-70
2021/11/09 05:28:33;;;;;;;4.50;3.20;;;;;;;-140.79;100.00;63287.88;5028713;28;20041;-70
2021/11/09 05:30:58;;;;;;;4.53;3.40;;;;;;;-140.79;100.00;63287.88;5029016;28;20013;-69
2021/11/09 05:33:24;;;;;;;4.70;3.60;;;;;;;-140.79;100.00;63287.88;5027628;28;20029;-70
2021/11/09 05:35:51;;;;;;;5.43;3.65;;;;;;;-140.79;100.00;63287.88;5028278;28;20098;-67
2021/11/09 05:38:24;;;;;;;4.53;3.40;;;;;;;-140.79;100.00;63287.88;5010692;28;20129;-70
2021/11/09 05:40:55;;;;;;;4.63;3.35;;;;;;;-140.79;100.00;63287.88;5028141;28;20120;-69
2021/11/09 05:43:20;;;;;;;4.03;3.22;;;;;;;-140.79;100.00;63287.88;5027602;28;20033;-70
2021/11/09 05:45:45;;;;;;;5.63;3.50;;;;;;;-140.79;100.00;63287.88;5010469;28;20397;-70
2021/11/09 05:48:11;;;;;;;4.18;3.50;;;;;;;-140.79;100.00;63287.88;5027846;28;20026;-72
2021/11/09 05:50:37;;;;;;;4.63;3.50;;;;;;;-140.79;100.00;63287.88;5027821;28;20040;-72
2021/11/09 05:53:02;;;;;;;3.75;2.92;;;;;;;-140.79;100.00;63287.88;5027863;28;20112;-73
2021/11/09 05:55:28;;;;;;;4.03;2.90;;;;;;;-140.79;100.00;63287.88;5027880;28;20022;-75
2021/11/09 05:57:53;;;;;;;4.85;3.60;;;;;;;-140.79;100.00;63287.88;5028464;28;20057;-75
2021/11/09 06:00:19;;;;;;;4.65;3.15;;;;;;;-140.79;100.00;63287.88;5025228;28;20053;-73
2021/11/09 06:02:44;;;;;;;3.97;3.08;;;;;;;-140.79;100.00;63287.88;5026921;28;20057;-72
2021/11/09 06:05:10;;;;;;;4.40;3.00;;;;;;;-140.79;100.00;63287.88;5023761;28;20975;-74
2021/11/09 06:07:35;;;;;;;4.75;3.20;;;;;;;-140.79;100.00;63287.88;5027512;28;20017;-72
2021/11/09 06:10:01;;;;;;;4.07;3.05;;;;;;;-140.79;100.00;63287.88;5027407;28;20558;-79
2021/11/09 06:12:26;;;;;;;3.75;3.05;;;;;;;-140.79;100.00;63287.88;5027066;28;20032;-74
2021/11/09 06:14:52;;;;;;;4.68;3.22;;;;;;;-140.79;100.00;63287.88;5008516;28;20021;-70
2021/11/09 06:17:17;;;;;;;3.63;3.00;;;;;;;-140.79;100.00;63287.88;5009953;28;20037;-70
2021/11/09 06:19:43;;;;;;;4.30;3.03;;;;;;;-140.79;100.00;63287.88;5027708;28;20029;-70
2021/11/09 06:22:08;;;;;;;3.70;2.70;;;;;;;-140.79;100.00;63287.88;5027143;28;20056;-72
2021/11/09 06:24:34;;;;;;;3.67;2.92;;;;;;;-140.79;100.00;63287.88;5008983;28;20419;-73
2021/11/09 06:26:59;;;;;;;3.92;3.08;;;;;;;-140.79;100.00;63287.88;5027346;28;20476;-71
2021/11/09 06:29:25;;;;;;;3.70;2.70;;;;;;;-140.79;100.00;63287.88;5024953;28;20029;-72
2021/11/09 06:31:51;;;;;;;5.18;2.95;;;;;;;-140.79;100.00;63287.88;5027390;28;20036;-72
2021/11/09 06:34:16;;;;;;;3.95;2.92;;;;;;;-140.79;100.00;63287.88;5026919;28;20028;-71
2021/11/09 06:36:42;;;;;;;3.53;2.67;;;;;;;-140.79;100.00;63287.88;5026708;28;20022;-72
2021/11/09 06:39:08;;;;;;;3.92;2.70;;;;;;;-140.79;100.00;63287.88;5022609;28;20095;-71
2021/11/09 06:41:33;;;;;;;3.70;2.53;;;;;;;-140.79;100.00;63287.88;5027079;28;20091;-72
2021/11/09 06:43:58;;;;;;;3.22;2.60;;;;;;;-140.79;100.00;63287.88;5025784;28;20538;-72
2021/11/09 06:46:24;;;;;;;3.88;3.10;;;;;;;-140.79;100.00;63287.88;5026959;28;20025;-71
2021/11/09 06:48:49;;;;;;;3.85;2.70;;;;;;;-140.79;100.00;63287.88;5021598;28;20040;-72
2021/11/09 06:51:15;;;;;;;4.05;2.95;;;;;;;-140.79;100.00;63287.88;5025312;28;20034;-72
2021/11/09 06:53:42;;;;;;;3.75;2.92;;;;;;;-140.79;100.00;63287.88;5025889;28;20549;-72
2021/11/09 06:56:07;;;;;;;5.78;3.10;;;;;;;-140.79;100.00;63287.88;5008709;28;20144;-71
2021/11/09 06:58:34;;;;;;;4.72;2.60;;;;;;;-140.79;100.00;63287.88;5007715;28;20153;-71
2021/11/09 07:01:00;;;;;;;4.20;2.72;;;;;;;-140.79;100.00;63287.88;5026369;28;20034;-73
2021/11/09 07:03:25;;;;;;;4.00;2.63;;;;;;;-140.79;100.00;63287.88;5025337;28;20049;-76
2021/11/09 07:05:51;;;;;;;4.28;2.72;;;;;;;-140.79;100.00;63287.88;5008531;28;20102;-77
2021/11/09 07:08:16;;;;;;;3.75;2.60;;;;;;;-140.79;100.00;63287.88;5026104;28;20095;-72
2021/11/09 07:10:44;;;;;;;4.32;3.17;;;;;;;-140.79;100.00;63287.88;5025091;28;20029;-71
2021/11/09 07:13:10;;;;;;;4.07;2.60;;;;;;;-140.79;100.00;63287.88;5023035;28;20080;-75
2021/11/09 07:15:36;;;;;;;3.95;2.72;;;;;;;-140.79;100.00;63287.88;5027031;28;20021;-77
2021/11/09 07:18:01;;;;;;;4.30;2.80;;;;;;;-140.79;100.00;63287.88;5008115;28;20030;-76
2021/11/09 07:20:27;;;;;;;3.40;2.50;;;;;;;-140.79;100.00;63287.88;4993166;28;20472;-76
2021/11/09 07:22:52;;;;;;;4.15;2.83;;;;;;;-140.79;100.00;63287.88;4997375;28;20029;-77
2021/11/09 07:25:18;;;;;;;3.60;2.55;;;;;;;-140.79;100.00;63287.88;4993356;28;20033;-79
2021/11/09 07:27:44;;;;;;;4.53;2.80;;;;;;;-140.79;100.00;63287.88;5013585;28;20041;-76
2021/11/09 07:30:11;;;;;;;3.67;2.60;;;;;;;-140.79;100.00;63287.88;5031030;28;20030;-76
2021/11/09 07:32:36;;;;;;;3.50;2.75;;;;;;;-140.79;100.00;63287.88;5029540;28;20400;-77
2021/11/09 07:35:06;;;;;;;6.88;2.95;;;;;;;-140.79;100.00;63287.88;5007561;28;20087;-77
2021/11/09 07:37:31;;;;;;;4.32;3.05;;;;;;;-140.79;100.00;63287.88;5035826;28;20032;-75
2021/11/09 07:39:57;;;;;;;4.90;2.97;;;;;;;-140.79;100.00;63287.88;5030212;28;20037;-75
2021/11/09 07:42:23;;;;;;;3.88;2.60;;;;;;;-140.79;100.00;63287.88;5014713;28;20033;-76
2021/11/09 07:44:48;;;;;;;5.75;2.70;;;;;;;-140.79;100.00;63287.88;4991507;28;20096;-75
2021/11/09 07:47:14;;;;;;;3.80;2.90;;;;;;;-140.79;100.00;63287.88;5011723;28;20021;-76
2021/11/09 07:49:41;;;;;;;3.60;2.60;;;;;;;-140.79;100.00;63287.88;4991103;28;20029;-75
2021/11/09 07:52:07;;;;;;;3.35;2.42;;;;;;;-140.79;100.00;63287.88;5025020;28;20056;-75
2021/11/09 07:54:35;;;;;;;4.22;2.67;;;;;;;-140.79;100.00;63287.88;5024788;28;20042;-76
2021/11/09 07:57:10;;;;;;;4.35;2.72;;;;;;;-140.79;100.00;63287.88;5007513;28;20699;-74
2021/11/09 08:00:20;;;;;;;4.25;2.85;;;;;;;-140.79;100.00;63287.88;5024632;28;20082;-74
2021/11/09 08:02:33;;;;;;;4.25;2.95;;;;;;;-140.79;100.00;63287.88;5007367;28;20053;-75
2021/11/09 08:05:05;;;;;;;4.35;3.03;;;;;;;-140.79;100.00;63287.88;5025776;28;20159;-75
2021/11/09 08:07:32;;;;;;;3.75;2.47;;;;;;;-140.79;100.00;63287.88;5024958;28;20498;-75
2021/11/09 08:09:58;;;;;;;3.85;2.97;;;;;;;-140.79;100.00;63287.88;5024810;28;20044;-75
2021/11/09 08:12:24;;;;;;;4.72;2.80;;;;;;;-140.79;100.00;63287.88;5008002;28;20041;-75
2021/11/09 08:14:49;;;;;;;3.58;2.83;;;;;;;-140.79;100.00;63287.88;5024645;28;20025;-74
2021/11/09 08:17:15;;;;;;;3.85;2.90;;;;;;;-140.79;100.00;63287.88;5007554;28;20676;-74
2021/11/09 08:19:41;;;;;;;3.90;2.53;;;;;;;-140.79;100.00;63287.88;5024828;28;20042;-75
2021/11/09 08:22:07;;;;;;;3.50;2.58;;;;;;;-140.79;100.00;63287.88;5025545;28;20084;-75
2021/11/09 08:24:33;;;;;;;5.95;2.90;;;;;;;-140.79;100.00;63287.88;5024281;28;20613;-75
2021/11/09 08:26:58;;;;;;;4.20;2.88;;;;;;;-140.79;100.00;63287.88;5023454;28;20072;-74
2021/11/09 08:29:27;;;;;;;4.15;2.95;;;;;;;-140.79;100.00;63287.88;5023255;28;20099;-75
2021/11/09 08:31:54;;;;;;;4.18;3.17;;;;;;;-140.79;100.00;63287.88;5023335;28;20094;-75
2021/11/09 08:34:19;;;;;;;4.00;2.90;;;;;;;-140.79;100.00;63287.88;5024546;28;20024;-75
2021/11/09 08:36:45;;;;;;;5.28;3.13;;;;;;;-140.79;100.00;63287.88;5024358;28;20489;-74
2021/11/09 08:39:13;;;;;;;3.85;2.97;;;;;;;-140.79;100.00;63287.88;5023728;28;20037;-74
2021/11/09 08:41:42;;;;;;;3.30;2.42;;;;;;;-140.79;100.00;63287.88;5024949;28;20100;-74
2021/11/09 08:44:10;;;;;;;3.55;2.80;;;;;;;-140.79;100.00;63287.88;5022890;28;20513;-73
2021/11/09 08:46:49;;;;;;;4.50;2.85;;;;;;;-140.79;100.00;63287.88;5024724;28;20328;-75
2021/11/09 08:49:16;;;;;;;4.75;2.63;;;;;;;-140.79;100.00;63287.88;4998784;28;20039;-74
2021/11/09 08:51:43;;;;;;;3.63;2.50;;;;;;;-140.79;100.00;63287.88;5020670;28;20055;-75
2021/11/09 08:54:15;;;;;;;3.70;2.35;;;;;;;-140.79;100.00;63287.88;5006428;28;20416;-76
2021/11/09 09:04:40;;;;;;;4.00;2.95;;;;;;;-140.79;100.00;63287.88;5024641;28;20052;-75
2021/11/09 09:07:06;;;;;;;3.95;2.58;;;;;;;-140.79;100.00;63287.88;5024683;28;20033;-74
2021/11/09 09:09:32;;;;;;;3.80;2.78;;;;;;;-140.79;100.00;63287.88;5024465;28;20028;-75
2021/11/09 09:11:57;;;;;;;3.97;2.58;;;;;;;-140.79;100.00;63287.88;5024603;28;20017;-75
2021/11/09 09:14:24;;;;;;;3.58;2.55;;;;;;;-140.79;100.00;63287.88;5024895;28;20495;-76
2021/11/09 09:16:50;;;;;;;4.35;2.95;;;;;;;-140.79;100.00;63287.88;5007515;28;20088;-74
2021/11/09 09:19:16;;;;;;;3.95;2.97;;;;;;;-140.79;100.00;63287.88;5009091;28;20026;-75
2021/11/09 09:21:50;;;;;;;5.15;2.80;;;;;;;-140.79;100.00;63287.88;5006321;28;20125;-75
2021/11/09 09:30:14;;;;;;;4.40;3.10;;;;;;;-140.79;100.00;63287.88;5018348;28;20103;-73
2021/11/09 09:32:47;;;;;;;4.93;3.17;;;;;;;-140.79;100.00;63287.88;5002081;28;20046;-75
2021/11/09 09:54:40;;;;;;;4.40;2.70;;;;;;;-140.79;100.00;63287.88;5027663;28;20093;-75
2021/11/09 09:57:05;;;;;;;6.22;2.85;;;;;;;-140.79;100.00;63287.88;5021361;28;20030;-76
2021/11/09 09:59:33;;;;;;;5.22;3.03;;;;;;;-140.79;100.00;63287.88;5027642;28;20025;-75
2021/11/09 10:02:06;;;;;;;3.67;2.70;;;;;;;-140.79;100.00;63287.88;5027565;28;20096;-75
2021/11/09 10:04:33;;;;;;;4.20;3.03;;;;;;;-140.79;100.00;63287.88;5026987;28;20053;-76
2021/11/09 10:06:59;;;;;;;3.95;2.85;;;;;;;-140.79;100.00;63287.88;5027401;28;20523;-72
2021/11/09 10:09:40;;;;;;;3.63;2.45;;;;;;;-140.79;100.00;63287.88;5027599;28;20021;-76
2021/11/09 10:12:18;;;;;;;4.00;2.88;;;;;;;-140.79;100.00;63287.88;5010082;28;20029;-74
2021/11/09 10:14:44;;;;;;;3.95;2.80;;;;;;;-140.79;100.00;63287.88;5027081;28;20029;-75
2021/11/09 10:17:10;;;;;;;4.18;2.65;;;;;;;-140.79;100.00;63287.88;5009008;28;20078;-75
2021/11/09 10:19:35;;;;;;;4.82;2.85;;;;;;;-140.79;100.00;63287.88;5025853;28;20056;-74
2021/11/09 10:22:01;;;;;;;4.25;2.65;;;;;;;-140.79;100.00;63287.88;5027420;28;20498;-74
2021/11/09 10:24:28;;;;;;;4.32;2.75;;;;;;;-140.79;100.00;63287.88;5010533;28;20025;-74
2021/11/09 10:26:54;;;;;;;5.20;2.80;;;;;;;-140.79;100.00;63287.88;5010306;28;20037;-75
2021/11/09 10:29:36;;;;;;;4.28;2.75;;;;;;;-140.79;100.00;63287.88;5022536;28;20021;-74
2021/11/09 10:32:29;;;;;;;4.30;2.70;;;;;;;-140.79;100.00;63287.88;5009230;28;21450;-71
2021/11/09 10:34:57;;;;;;;3.75;3.00;;;;;;;-140.79;100.00;63287.88;5016377;28;20040;-72
2021/11/09 10:37:30;;;;;;;4.60;3.00;;;;;;;-140.79;100.00;63287.88;5028152;28;20163;-78
2021/11/09 10:40:00;;;;;;;4.70;2.90;;;;;;;-140.79;100.00;63287.88;5008568;28;20021;-72
2021/11/09 10:42:26;;;;;;;4.25;3.08;;;;;;;-140.79;100.00;63287.88;5023991;28;20033;-74
2021/11/09 10:44:57;;;;;;;4.78;2.65;;;;;;;-140.79;100.00;63287.88;5020734;28;20033;-71
2021/11/09 10:47:30;;;;;;;4.32;3.10;;;;;;;-140.79;100.00;63287.88;5024122;28;20052;-72
2021/11/09 10:50:01;;;;;;;4.43;2.92;;;;;;;-140.79;100.00;63287.88;5019844;28;20087;-72
2021/11/09 10:52:32;;;;;;;4.00;2.53;;;;;;;-140.79;100.00;63287.88;5023634;28;20583;-70
2021/11/09 10:55:27;;;;;;;4.97;2.70;;;;;;;-140.79;100.00;63287.88;5016047;28;20020;-72
2021/11/09 11:06:27;;;;;;;4.05;2.42;;;;;;;-140.79;100.00;63287.88;5025647;28;20044;-72
2021/11/09 11:09:11;;;;;;;4.07;2.80;;;;;;;-140.79;100.00;63287.88;5007505;28;20025;-74
2021/11/09 11:11:37;;;;;;;4.20;2.45;;;;;;;-140.79;100.00;63287.88;5028040;28;20036;-73
2021/11/09 11:14:07;;;;;;;4.43;2.42;;;;;;;-140.79;100.00;63287.88;5019312;28;20025;-73
2021/11/09 11:17:00;;;;;;;3.80;2.72;;;;;;;-140.79;100.00;63287.88;5019471;28;20532;-72
2021/11/09 11:19:25;;;;;;;3.25;2.40;;;;;;;-140.79;100.00;63287.88;5022896;28;20152;-71
2021/11/09 11:21:51;;;;;;;5.35;2.67;;;;;;;-140.79;100.00;63287.88;5025330;28;20570;-70
2021/11/09 11:24:17;;;;;;;3.58;2.42;;;;;;;-140.79;100.00;63287.88;5029859;28;20520;-72
2021/11/09 11:26:44;;;;;;;3.53;2.58;;;;;;;-140.79;100.00;63287.88;5032108;28;20033;-71
2021/11/09 11:29:09;;;;;;;3.85;2.58;;;;;;;-140.79;100.00;63287.88;5016730;28;20029;-72
2021/11/09 11:31:35;;;;;;;4.28;2.92;;;;;;;-140.79;100.00;63287.88;5031807;28;20021;-71
2021/11/09 11:34:01;;;;;;;4.00;2.80;;;;;;;-140.79;100.00;63287.88;5029696;28;20021;-72
2021/11/09 11:36:26;;;;;;;3.83;2.80;;;;;;;-140.79;100.00;63287.88;5018553;28;20029;-77
2021/11/09 11:38:54;;;;;;;4.07;2.55;;;;;;;-140.79;100.00;63287.88;5018964;28;20021;-76
2021/11/09 11:41:22;;;;;;;4.03;2.40;;;;;;;-140.79;100.00;63287.88;5020809;28;20033;-77
2021/11/09 11:43:47;;;;;;;4.18;2.50;;;;;;;-140.79;100.00;63287.88;5032909;28;20090;-77
2021/11/09 11:46:13;;;;;;;3.63;2.80;;;;;;;-140.79;100.00;63287.88;5039415;28;20140;-77
2021/11/09 11:48:56;;;;;;;4.03;2.50;;;;;;;-140.79;100.00;63287.88;5036550;28;20112;-71
2021/11/09 11:51:22;;;;;;;3.97;2.47;;;;;;;-140.79;100.00;63287.88;5018411;28;20112;-77
2021/11/09 11:53:49;;;;;;;4.35;3.03;;;;;;;-140.79;100.00;63287.88;5012612;28;20653;-76
2021/11/09 11:56:16;;;;;;;3.95;2.47;;;;;;;-140.79;100.00;63287.88;5029789;28;20091;-73
2021/11/09 11:58:42;;;;;;;4.20;2.75;;;;;;;-140.79;100.00;63287.88;5012708;28;20037;-75
2021/11/09 12:01:08;;;;;;;4.05;2.75;;;;;;;-140.79;100.00;63287.88;5029247;28;20448;-76
2021/11/09 12:03:34;;;;;;;4.43;2.88;;;;;;;-140.79;100.00;63287.88;5009553;28;20054;-75
2021/11/09 12:06:02;;;;;;;5.95;2.45;;;;;;;-140.79;100.00;63287.88;5009932;28;20092;-75
2021/11/09 12:08:33;;;;;;;4.15;2.70;;;;;;;-140.79;100.00;63287.88;5025620;28;20048;-73
2021/11/09 12:10:59;;;;;;;3.35;2.28;;;;;;;-140.79;100.00;63287.88;5025365;28;20029;-74
2021/11/09 12:13:24;;;;;;;4.43;2.85;;;;;;;-140.79;100.00;63287.88;5025670;28;20032;-74
2021/11/09 12:15:50;;;;;;;4.53;2.63;;;;;;;-140.79;100.00;63287.88;5008174;28;20013;-74
2021/11/09 12:18:27;;;;;;;4.03;2.55;;;;;;;-140.79;100.00;63287.88;5026396;28;20083;-76
2021/11/09 12:20:52;;;;;;;4.72;2.65;;;;;;;-140.79;100.00;63287.88;5026098;28;20033;-76
2021/11/09 12:23:19;;;;;;;4.13;2.50;;;;;;;-140.79;100.00;63287.88;5000826;28;20029;-76
2021/11/09 12:25:45;;;;;;;3.17;2.50;;;;;;;-140.79;100.00;63287.88;5009926;28;20037;-75
2021/11/09 12:28:13;;;;;;;5.03;2.72;;;;;;;-140.79;100.00;63287.88;5026102;28;20025;-73
2021/11/09 12:30:45;;;;;;;3.95;2.60;;;;;;;-140.79;100.00;63287.88;5024433;28;20099;-73
2021/11/09 12:33:25;;;;;;;4.35;2.55;;;;;;;-140.79;100.00;63287.88;5021976;28;20022;-73
2021/11/09 12:36:11;;;;;;;4.40;2.30;;;;;;;-140.79;100.00;63287.88;5010118;28;20033;-73
2021/11/09 12:38:48;;;;;;;4.60;2.90;;;;;;;-140.79;100.00;63287.88;5017321;28;20079;-74
2021/11/09 12:41:18;;;;;;;4.57;2.72;;;;;;;-140.79;100.00;63287.88;5022360;28;20037;-73
2021/11/09 12:43:43;;;;;;;4.40;2.90;;;;;;;-140.79;100.00;63287.88;5025167;28;20822;-74
2021/11/09 12:46:12;;;;;;;4.50;2.95;;;;;;;-140.79;100.00;63287.88;5025899;28;20124;-73
2021/11/09 12:48:52;;;;;;;4.03;2.50;;;;;;;-140.79;100.00;63287.88;5023520;28;20036;-73
2021/11/09 12:51:26;;;;;;;3.67;2.22;;;;;;;-140.79;100.00;63287.88;5023765;28;20061;-73
2021/11/09 12:53:52;;;;;;;3.85;2.60;;;;;;;-140.79;100.00;63287.88;5006141;28;20072;-75
2021/11/09 12:56:19;;;;;;;4.22;2.60;;;;;;;-140.79;100.00;63287.88;5026308;28;20040;-75
2021/11/09 12:58:56;;;;;;;4.80;2.85;;;;;;;-140.79;100.00;63287.88;5025637;28;20029;-73
2021/11/09 13:01:26;;;;;;;4.97;2.53;;;;;;;-140.79;100.00;63287.88;5026773;28;20053;-72
2021/11/09 13:03:59;;;;;;;3.83;2.70;;;;;;;-140.79;100.00;63287.88;5023881;28;20055;-75
2021/11/09 13:06:50;;;;;;;4.05;2.60;;;;;;;-140.79;100.00;63287.88;5027709;28;20040;-76
2021/11/09 13:09:24;;;;;;;5.10;2.40;;;;;;;-140.79;100.00;63287.88;5028337;28;20036;-73
2021/11/09 13:11:53;;;;;;;4.05;2.33;;;;;;;-140.79;100.00;63287.88;4999519;28;20036;-73
2021/11/09 13:14:20;;;;;;;4.67;2.40;;;;;;;-140.79;100.00;63287.88;5011904;28;20104;-74
2021/11/09 13:16:49;;;;;;;4.13;2.30;;;;;;;-140.79;100.00;63287.88;5022162;28;20025;-74
2021/11/09 13:19:16;;;;;;;6.38;2.55;;;;;;;-140.79;100.00;63287.88;4999190;28;20087;-75